createdAt,value
2017-07-08T00:01:44.837Z,20.10
2017-07-08T00:04:11.153Z,20.10
2017-07-08T00:06:38.132Z,20.10
2017-07-08T00:09:04.431Z,20.00
2017-07-08T00:11:30.743Z,20.00
2017-07-08T00:13:57.133Z,20.10
2017-07-08T00:16:23.492Z,20.10
2017-07-08T00:18:49.794Z,20.00
2017-07-08T00:21:16.109Z,20.00
2017-07-08T00:23:43.718Z,19.90
2017-07-08T00:26:10.044Z,19.90
2017-07-08T00:28:36.393Z,19.90
2017-07-08T00:31:03.114Z,20.00
2017-07-08T00:33:29.440Z,19.90
2017-07-08T00:35:55.786Z,19.90
2017-07-08T00:38:22.256Z,19.90
2017-07-08T00:40:49.321Z,19.90
2017-07-08T00:43:15.656Z,19.90
2017-07-08T00:45:41.996Z,19.90
2017-07-08T00:48:08.391Z,20.00
2017-07-08T00:50:34.782Z,20.00
2017-07-08T00:53:01.097Z,20.00
2017-07-08T00:55:27.433Z,20.10
2017-07-08T00:57:53.765Z,20.20
2017-07-08T01:00:20.084Z,20.30
2017-07-08T01:02:46.427Z,20.40
2017-07-08T01:05:12.817Z,20.30
2017-07-08T01:07:39.155Z,20.20
2017-07-08T01:10:05.494Z,20.20
2017-07-08T01:12:31.834Z,20.20
2017-07-08T01:14:58.174Z,20.30
2017-07-08T01:17:24.706Z,20.20
2017-07-08T01:19:51.315Z,20.00
2017-07-08T01:22:17.632Z,19.90
2017-07-08T01:24:44.427Z,19.90
2017-07-08T01:27:10.763Z,19.70
2017-07-08T01:29:37.297Z,20.00
2017-07-08T01:32:03.655Z,20.00
2017-07-08T01:34:30.266Z,19.80
2017-07-08T01:36:56.845Z,19.70
2017-07-08T01:39:23.412Z,19.70
2017-07-08T01:41:50.021Z,19.60
2017-07-08T01:44:16.602Z,19.50
2017-07-08T01:46:43.177Z,19.50
2017-07-08T01:49:09.768Z,19.40
2017-07-08T01:51:36.442Z,19.40
2017-07-08T01:54:03.026Z,19.40
2017-07-08T01:56:29.623Z,19.30
2017-07-08T01:58:56.900Z,19.20
2017-07-08T02:01:23.460Z,19.20
2017-07-08T02:03:50.104Z,19.20
2017-07-08T02:06:17.436Z,19.10
2017-07-08T02:08:43.768Z,19.10
2017-07-08T02:11:10.080Z,19.10
2017-07-08T02:13:36.412Z,19.10
2017-07-08T02:16:02.769Z,19.00
2017-07-08T02:18:29.087Z,18.90
2017-07-08T02:20:55.609Z,19.00
2017-07-08T02:23:22.334Z,18.90
2017-07-08T02:25:49.404Z,18.90
2017-07-08T02:28:16.014Z,18.90
2017-07-08T02:30:43.085Z,18.90
2017-07-08T02:33:09.426Z,18.70
2017-07-08T02:35:36.027Z,18.90
2017-07-08T02:38:02.566Z,19.00
2017-07-08T02:40:29.123Z,19.00
2017-07-08T02:42:55.693Z,18.90
2017-07-08T02:45:22.170Z,18.90
2017-07-08T02:47:49.241Z,18.90
2017-07-08T02:50:15.564Z,18.90
2017-07-08T02:52:41.902Z,18.80
2017-07-08T02:55:08.222Z,18.80
2017-07-08T02:57:34.544Z,18.80
2017-07-08T03:00:01.117Z,18.80
2017-07-08T03:02:27.689Z,18.80
2017-07-08T03:04:54.997Z,18.70
2017-07-08T03:07:21.317Z,18.70
2017-07-08T03:09:47.629Z,18.80
2017-07-08T03:14:47.580Z,18.80
2017-07-08T03:17:14.295Z,18.80
2017-07-08T03:19:40.644Z,18.80
2017-07-08T03:22:06.974Z,18.80
2017-07-08T03:24:33.373Z,18.80
2017-07-08T03:26:59.807Z,18.80
2017-07-08T03:29:26.891Z,18.70
2017-07-08T03:31:53.243Z,18.60
2017-07-08T03:34:19.556Z,18.70
2017-07-08T03:36:45.905Z,18.50
2017-07-08T03:39:12.265Z,18.60
2017-07-08T03:41:38.667Z,18.60
2017-07-08T03:44:04.987Z,18.60
2017-07-08T03:46:31.329Z,18.60
2017-07-08T03:48:57.649Z,18.50
2017-07-08T03:51:24.026Z,18.50
2017-07-08T03:53:50.354Z,18.40
2017-07-08T03:56:17.477Z,18.60
2017-07-08T03:58:43.808Z,18.60
2017-07-08T04:01:10.276Z,18.70
2017-07-08T04:03:36.597Z,18.80
2017-07-08T04:06:02.937Z,18.90
2017-07-08T04:08:30.010Z,19.00
2017-07-08T04:10:56.402Z,19.00
2017-07-08T04:13:22.842Z,18.90
2017-07-08T04:15:49.236Z,19.00
2017-07-08T04:18:15.647Z,19.00
2017-07-08T04:20:42.003Z,19.10
2017-07-08T04:23:08.514Z,19.20
2017-07-08T04:25:34.908Z,19.20
2017-07-08T04:28:01.323Z,19.30
2017-07-08T04:30:28.384Z,19.40
2017-07-08T04:32:55.458Z,19.50
2017-07-08T04:35:21.783Z,19.20
2017-07-08T04:37:48.138Z,19.50
2017-07-08T04:40:14.503Z,19.50
2017-07-08T04:42:40.865Z,19.60
2017-07-08T04:45:07.233Z,19.70
2017-07-08T04:47:33.572Z,19.70
2017-07-08T04:49:59.896Z,19.60
2017-07-08T04:52:26.244Z,19.80
2017-07-08T04:54:52.692Z,19.90
2017-07-08T04:57:19.009Z,19.90
2017-07-08T04:59:45.334Z,19.90
2017-07-08T05:02:11.703Z,20.10
2017-07-08T05:04:38.334Z,20.20
2017-07-08T05:07:04.863Z,20.10
2017-07-08T05:09:31.426Z,20.10
2017-07-08T05:11:57.746Z,20.20
2017-07-08T05:14:24.276Z,20.10
2017-07-08T05:16:50.884Z,20.00
2017-07-08T05:19:17.416Z,20.00
2017-07-08T05:21:43.958Z,19.90
2017-07-08T05:24:10.545Z,19.90
2017-07-08T05:29:10.608Z,20.20
2017-07-08T05:31:37.005Z,20.20
2017-07-08T05:34:04.180Z,20.20
2017-07-08T05:36:30.524Z,20.20
2017-07-08T05:38:56.914Z,20.10
2017-07-08T05:41:23.513Z,20.10
2017-07-08T05:43:50.644Z,20.40
2017-07-08T05:46:16.973Z,20.30
2017-07-08T05:48:43.325Z,20.50
2017-07-08T05:51:09.694Z,20.60
2017-07-08T05:53:36.048Z,20.60
2017-07-08T05:56:02.449Z,20.30
2017-07-08T05:58:29.538Z,20.40
2017-07-08T06:00:55.950Z,20.40
2017-07-08T06:03:22.337Z,20.30
2017-07-08T06:05:48.663Z,20.30
2017-07-08T06:08:15.019Z,20.40
2017-07-08T06:10:41.356Z,20.40
2017-07-08T06:13:07.700Z,20.30
2017-07-08T06:15:34.047Z,20.20
2017-07-08T06:18:00.405Z,20.20
2017-07-08T06:20:26.745Z,20.30
2017-07-08T06:22:53.085Z,20.30
2017-07-08T06:25:19.509Z,20.30
2017-07-08T06:27:46.677Z,20.40
2017-07-08T06:30:12.993Z,20.30
2017-07-08T06:32:40.246Z,20.10
2017-07-08T06:35:07.129Z,20.10
2017-07-08T06:37:33.448Z,20.10
2017-07-08T06:39:59.935Z,20.10
2017-07-08T06:42:26.325Z,20.20
2017-07-08T06:44:52.671Z,20.30
2017-07-08T06:47:18.999Z,20.30
2017-07-08T06:49:45.443Z,20.40
2017-07-08T06:52:11.765Z,20.50
2017-07-08T06:54:38.269Z,20.50
2017-07-08T06:57:04.878Z,20.40
2017-07-08T06:59:31.204Z,20.40
2017-07-08T07:01:57.607Z,20.40
2017-07-08T07:04:23.939Z,20.40
2017-07-08T07:06:50.389Z,20.50
2017-07-08T07:09:16.717Z,20.50
2017-07-08T07:11:43.082Z,20.70
2017-07-08T07:14:10.181Z,20.80
2017-07-08T07:16:36.554Z,20.70
2017-07-08T07:19:02.870Z,20.80
2017-07-08T07:21:30.012Z,20.90
2017-07-08T07:23:56.319Z,20.80
2017-07-08T07:26:22.880Z,20.90
2017-07-08T07:28:49.251Z,20.80
2017-07-08T07:31:15.833Z,20.90
2017-07-08T07:33:42.160Z,21.20
2017-07-08T07:36:08.492Z,21.30
2017-07-08T07:38:34.807Z,21.20
2017-07-08T07:41:01.130Z,21.30
2017-07-08T07:43:27.444Z,21.50
2017-07-08T07:45:53.760Z,21.70
2017-07-08T07:48:20.306Z,22.30
2017-07-08T07:50:46.824Z,22.50
2017-07-08T07:53:13.395Z,22.80
2017-07-08T07:55:40.050Z,22.80
2017-07-08T07:58:06.372Z,23.00
2017-07-08T08:00:32.918Z,23.10
2017-07-08T08:02:59.451Z,23.20
2017-07-08T08:05:26.103Z,23.10
2017-07-08T08:07:52.881Z,23.20
2017-07-08T08:10:19.477Z,23.30
2017-07-08T08:12:46.753Z,23.50
2017-07-08T08:15:13.295Z,23.40
2017-07-08T08:17:40.607Z,23.50
2017-07-08T08:20:07.140Z,23.50
2017-07-08T08:22:33.676Z,24.00
2017-07-08T08:25:00.227Z,23.90
2017-07-08T08:27:27.498Z,24.00
2017-07-08T08:29:54.545Z,23.80
2017-07-08T08:32:20.931Z,23.80
2017-07-08T08:34:47.241Z,23.50
2017-07-08T08:37:13.565Z,23.50
2017-07-08T08:39:39.906Z,23.50
2017-07-08T08:42:06.450Z,23.80
2017-07-08T08:44:32.973Z,24.80
2017-07-08T08:46:59.281Z,25.40
2017-07-08T08:49:25.808Z,25.70
2017-07-08T08:51:52.353Z,25.70
2017-07-08T08:54:18.890Z,25.50
2017-07-08T08:56:46.361Z,25.30
2017-07-08T08:59:12.902Z,25.10
2017-07-08T09:01:39.467Z,24.70
2017-07-08T09:04:06.069Z,24.50
2017-07-08T09:06:32.604Z,24.30
2017-07-08T09:09:00.055Z,24.30
2017-07-08T09:11:27.234Z,24.20
2017-07-08T09:13:53.557Z,24.20
2017-07-08T09:16:20.090Z,24.30
2017-07-08T09:18:46.677Z,24.70
2017-07-08T09:21:13.269Z,24.90
2017-07-08T09:23:41.314Z,25.00
2017-07-08T09:26:07.906Z,24.90
2017-07-08T09:28:40.741Z,25.00
2017-07-08T09:31:08.070Z,25.10
2017-07-08T09:33:34.598Z,25.40
2017-07-08T09:36:01.164Z,25.50
2017-07-08T09:38:27.737Z,25.70
2017-07-08T09:40:54.290Z,25.70
2017-07-08T09:43:20.911Z,25.80
2017-07-08T09:45:48.096Z,25.70
2017-07-08T09:48:15.381Z,25.90
2017-07-08T09:50:42.087Z,26.00
2017-07-08T09:53:08.625Z,26.10
2017-07-08T09:55:35.185Z,26.10
2017-07-08T09:58:01.938Z,25.50
2017-07-08T10:00:28.432Z,25.70
2017-07-08T10:02:55.124Z,25.90
2017-07-08T10:05:21.660Z,26.00
2017-07-08T10:07:48.203Z,26.00
2017-07-08T10:10:14.788Z,25.80
2017-07-08T10:12:41.454Z,25.60
2017-07-08T10:15:08.735Z,25.40
2017-07-08T10:17:35.334Z,25.40
2017-07-08T10:20:01.909Z,25.50
2017-07-08T10:22:28.560Z,25.60
2017-07-08T10:24:55.129Z,25.80
2017-07-08T10:27:21.713Z,26.10
2017-07-08T10:29:48.362Z,26.40
2017-07-08T10:32:15.622Z,26.30
2017-07-08T10:34:42.171Z,26.30
2017-07-08T10:37:08.734Z,26.20
2017-07-08T10:39:35.401Z,26.40
2017-07-08T10:42:01.971Z,26.60
2017-07-08T10:44:28.510Z,26.70
2017-07-08T10:46:55.085Z,26.80
2017-07-08T10:49:21.655Z,26.80
2017-07-08T10:51:48.245Z,26.90
2017-07-08T10:54:14.949Z,26.90
2017-07-08T10:56:48.308Z,26.70
2017-07-08T10:59:15.402Z,27.10
2017-07-08T11:01:41.757Z,27.00
2017-07-08T11:04:08.865Z,27.00
2017-07-08T11:06:35.217Z,26.90
2017-07-08T11:09:01.799Z,26.80
2017-07-08T11:11:30.934Z,27.30
2017-07-08T11:13:57.300Z,27.30
2017-07-08T11:16:23.638Z,27.20
2017-07-08T11:18:49.982Z,27.40
2017-07-08T11:21:17.085Z,27.00
2017-07-08T11:23:43.442Z,27.00
2017-07-08T11:26:09.789Z,27.00
2017-07-08T11:28:36.936Z,27.20
2017-07-08T11:31:03.236Z,27.20
2017-07-08T11:33:29.580Z,27.10
2017-07-08T11:35:55.967Z,27.20
2017-07-08T11:38:22.322Z,27.20
2017-07-08T11:40:48.661Z,27.00
2017-07-08T11:43:15.019Z,27.10
2017-07-08T11:45:41.461Z,27.40
2017-07-08T11:48:07.799Z,27.50
2017-07-08T11:50:34.161Z,27.10
2017-07-08T11:53:00.515Z,27.30
2017-07-08T11:55:26.860Z,27.40
2017-07-08T11:57:53.195Z,27.40
2017-07-08T12:00:19.537Z,27.20
2017-07-08T12:02:46.613Z,27.00
2017-07-08T12:05:13.700Z,27.10
2017-07-08T12:10:31.306Z,27.10
2017-07-08T12:12:57.701Z,27.20
2017-07-08T12:15:24.787Z,27.50
2017-07-08T12:17:51.097Z,27.50
2017-07-08T12:20:17.423Z,27.30
2017-07-08T12:22:43.736Z,27.50
2017-07-08T12:25:10.078Z,27.50
2017-07-08T12:27:37.150Z,27.70
2017-07-08T12:30:03.468Z,27.60
2017-07-08T12:32:29.789Z,27.70
2017-07-08T12:34:56.850Z,27.60
2017-07-08T12:37:23.353Z,27.60
2017-07-08T12:39:49.766Z,27.50
2017-07-08T12:42:16.092Z,27.60
2017-07-08T12:44:42.423Z,27.30
2017-07-08T12:47:08.811Z,27.50
2017-07-08T12:49:35.152Z,27.60
2017-07-08T12:52:01.601Z,27.70
2017-07-08T12:54:28.709Z,28.00
2017-07-08T12:56:55.057Z,28.00
2017-07-08T12:59:21.392Z,28.00
2017-07-08T13:01:47.746Z,27.90
2017-07-08T13:04:14.080Z,28.00
2017-07-08T13:06:40.378Z,28.20
2017-07-08T13:09:06.698Z,28.30
2017-07-08T13:11:33.001Z,28.30
2017-07-08T13:14:00.095Z,28.10
2017-07-08T13:16:26.428Z,28.10
2017-07-08T13:18:52.737Z,27.90
2017-07-08T13:21:19.064Z,27.60
2017-07-08T13:23:45.396Z,27.60
2017-07-08T13:26:11.736Z,27.80
2017-07-08T13:28:38.111Z,27.70
2017-07-08T13:31:04.543Z,27.90
2017-07-08T13:33:30.904Z,28.00
2017-07-08T13:35:57.369Z,28.30
2017-07-08T13:38:38.649Z,28.30
2017-07-08T13:41:04.983Z,28.20
2017-07-08T13:43:31.340Z,28.00
2017-07-08T13:45:57.697Z,28.10
2017-07-08T13:48:24.084Z,28.10
2017-07-08T13:50:51.185Z,28.10
2017-07-08T13:53:17.597Z,28.10
2017-07-08T13:55:43.949Z,28.10
2017-07-08T13:58:10.285Z,28.20
2017-07-08T14:00:36.673Z,28.10
2017-07-08T14:03:03.033Z,28.20
2017-07-08T14:05:29.402Z,28.00
2017-07-08T14:07:56.500Z,28.00
2017-07-08T14:10:23.604Z,28.00
2017-07-08T14:12:50.069Z,28.00
2017-07-08T14:15:16.429Z,27.90
2017-07-08T14:17:42.781Z,27.80
2017-07-08T14:20:09.152Z,27.70
2017-07-08T14:22:35.592Z,27.80
2017-07-08T14:25:01.922Z,28.00
2017-07-08T14:27:28.529Z,27.90
2017-07-08T14:29:55.238Z,27.40
2017-07-08T14:32:21.604Z,27.70
2017-07-08T14:34:48.049Z,27.70
2017-07-08T14:37:14.583Z,27.60
2017-07-08T14:39:40.925Z,27.90
2017-07-08T14:42:07.267Z,27.90
2017-07-08T14:44:33.633Z,28.00
2017-07-08T14:47:00.086Z,28.10
2017-07-08T14:49:26.449Z,27.80
2017-07-08T14:51:54.117Z,27.70
2017-07-08T14:54:27.376Z,27.80
2017-07-08T14:56:53.758Z,27.80
2017-07-08T14:59:20.218Z,27.70
2017-07-08T15:01:46.702Z,27.70
2017-07-08T15:04:13.058Z,27.70
2017-07-08T15:06:39.380Z,27.70
2017-07-08T15:09:06.467Z,27.60
2017-07-08T15:11:32.808Z,27.60
2017-07-08T15:13:59.126Z,27.60
2017-07-08T15:16:25.458Z,27.60
2017-07-08T15:18:51.943Z,27.70
2017-07-08T15:21:18.556Z,27.70
2017-07-08T15:23:44.885Z,27.30
2017-07-08T15:26:11.199Z,27.30
2017-07-08T15:28:38.445Z,27.30
2017-07-08T15:31:06.666Z,27.10
2017-07-08T15:33:33.092Z,27.10
2017-07-08T15:35:59.859Z,27.30
2017-07-08T15:38:27.384Z,27.20
2017-07-08T15:40:54.589Z,26.90
2017-07-08T15:43:21.247Z,26.90
2017-07-08T15:45:47.629Z,26.90
2017-07-08T15:48:14.018Z,26.70
2017-07-08T15:50:40.464Z,26.70
2017-07-08T15:53:22.807Z,26.50
2017-07-08T15:55:49.550Z,26.70
2017-07-08T15:58:15.983Z,26.60
2017-07-08T16:00:42.570Z,26.60
2017-07-08T16:03:09.678Z,26.40
2017-07-08T16:05:36.071Z,26.40
2017-07-08T16:08:02.481Z,26.50
2017-07-08T16:10:28.958Z,26.40
2017-07-08T16:12:55.374Z,26.20
2017-07-08T16:15:21.914Z,26.10
2017-07-08T16:17:48.284Z,26.10
2017-07-08T16:20:14.626Z,26.10
2017-07-08T16:22:41.037Z,26.10
2017-07-08T16:25:07.357Z,26.00
2017-07-08T16:27:33.822Z,26.10
2017-07-08T16:30:00.213Z,26.10
2017-07-08T16:32:26.560Z,26.00
2017-07-08T16:34:52.891Z,26.00
2017-07-08T16:37:19.242Z,26.10
2017-07-08T16:39:45.801Z,26.00
2017-07-08T16:42:12.881Z,26.20
2017-07-08T16:44:39.811Z,26.20
2017-07-08T16:47:06.627Z,26.20
2017-07-08T16:49:34.880Z,26.30
2017-07-08T16:52:01.240Z,26.30
2017-07-08T16:54:27.570Z,26.20
2017-07-08T16:56:54.636Z,26.00
2017-07-08T16:59:20.985Z,26.00
2017-07-08T17:01:47.549Z,26.00
2017-07-08T17:04:13.957Z,25.90
2017-07-08T17:06:41.185Z,25.80
2017-07-08T17:09:07.524Z,25.80
2017-07-08T17:11:33.917Z,25.80
2017-07-08T17:14:00.334Z,25.80
2017-07-08T17:16:27.743Z,25.50
2017-07-08T17:18:54.894Z,25.50
2017-07-08T17:21:21.254Z,25.50
2017-07-08T17:23:47.661Z,25.40
2017-07-08T17:26:14.002Z,25.40
2017-07-08T17:28:40.365Z,25.40
2017-07-08T17:31:06.685Z,25.50
2017-07-08T17:33:33.045Z,25.50
2017-07-08T17:36:00.179Z,25.50
2017-07-08T17:38:26.573Z,25.50
2017-07-08T17:40:52.914Z,25.40
2017-07-08T17:43:19.313Z,25.30
2017-07-08T17:45:46.374Z,25.30
2017-07-08T17:48:12.781Z,25.30
2017-07-08T17:50:39.161Z,25.20
2017-07-08T17:53:05.814Z,25.30
2017-07-08T17:55:41.150Z,25.20
2017-07-08T17:58:07.698Z,25.20
2017-07-08T18:00:34.050Z,25.10
2017-07-08T18:03:00.671Z,25.10
2017-07-08T18:05:27.256Z,25.10
2017-07-08T18:07:53.702Z,25.10
2017-07-08T18:10:20.021Z,25.10
2017-07-08T18:12:46.568Z,25.10
2017-07-08T18:15:12.915Z,25.00
2017-07-08T18:17:39.241Z,25.00
2017-07-08T18:20:05.580Z,25.00
2017-07-08T18:22:32.684Z,24.90
2017-07-08T18:24:59.010Z,24.90
2017-07-08T18:27:25.620Z,24.80
2017-07-08T18:29:52.540Z,24.90
2017-07-08T18:32:18.890Z,24.80
2017-07-08T18:34:45.253Z,24.80
2017-07-08T18:37:11.597Z,24.70
2017-07-08T18:39:37.938Z,24.70
2017-07-08T18:42:04.261Z,24.70
2017-07-08T18:44:30.616Z,24.60
2017-07-08T18:46:56.987Z,24.60
2017-07-08T18:49:23.572Z,24.60
2017-07-08T18:51:49.921Z,24.60
2017-07-08T18:54:16.276Z,24.60
2017-07-08T18:56:42.610Z,24.50
2017-07-08T18:59:09.038Z,24.50
2017-07-08T19:01:35.374Z,24.50
2017-07-08T19:04:01.736Z,24.50
2017-07-08T19:06:28.093Z,24.50
2017-07-08T19:08:54.415Z,24.40
2017-07-08T19:11:20.746Z,24.40
2017-07-08T19:13:47.097Z,24.30
2017-07-08T19:16:13.873Z,24.30
2017-07-08T19:18:40.401Z,24.20
2017-07-08T19:21:06.823Z,24.10
2017-07-08T19:23:33.498Z,24.10
2017-07-08T19:25:59.887Z,24.00
2017-07-08T19:28:26.991Z,24.00
2017-07-08T19:30:53.363Z,24.00
2017-07-08T19:33:19.725Z,24.00
2017-07-08T19:35:46.049Z,23.90
2017-07-08T19:38:12.714Z,23.80
2017-07-08T19:40:40.071Z,23.80
2017-07-08T19:43:06.397Z,23.80
2017-07-08T19:45:32.714Z,23.80
2017-07-08T19:47:59.321Z,23.70
2017-07-08T19:50:25.739Z,23.60
2017-07-08T19:52:52.917Z,23.60
2017-07-08T19:55:19.327Z,23.60
2017-07-08T19:57:46.610Z,23.70
2017-07-08T20:00:13.058Z,23.60
2017-07-08T20:02:39.433Z,23.40
2017-07-08T20:05:06.021Z,23.70
2017-07-08T20:07:32.382Z,23.70
2017-07-08T20:09:58.726Z,23.60
2017-07-08T20:12:25.141Z,23.50
2017-07-08T20:14:51.491Z,23.60
2017-07-08T20:17:18.583Z,23.50
2017-07-08T20:19:45.005Z,23.50
2017-07-08T20:22:11.449Z,23.50
2017-07-08T20:24:38.599Z,23.50
2017-07-08T20:27:05.862Z,23.50
2017-07-08T20:29:32.252Z,23.50
2017-07-08T20:31:58.730Z,23.50
2017-07-08T20:34:25.052Z,23.50
2017-07-08T20:36:51.502Z,23.50
2017-07-08T20:39:18.729Z,23.60
2017-07-08T20:41:45.136Z,23.70
2017-07-08T20:44:26.577Z,23.60
2017-07-08T20:46:53.201Z,23.40
2017-07-08T20:49:19.966Z,23.50
2017-07-08T20:51:46.613Z,23.50
2017-07-08T20:54:13.246Z,23.40
2017-07-08T20:56:40.582Z,23.50
2017-07-08T20:59:07.162Z,23.50
2017-07-08T21:01:33.831Z,23.40
2017-07-08T21:04:00.401Z,23.40
2017-07-08T21:06:26.924Z,23.30
2017-07-08T21:09:08.224Z,23.20
2017-07-08T21:11:35.185Z,23.00
2017-07-08T21:14:01.838Z,23.10
2017-07-08T21:16:28.438Z,23.20
2017-07-08T21:18:55.734Z,23.00
2017-07-08T21:21:22.299Z,23.00
2017-07-08T21:23:48.828Z,22.90
2017-07-08T21:26:15.404Z,22.80
2017-07-08T21:28:48.855Z,22.40
2017-07-08T21:31:15.509Z,22.70
2017-07-08T21:33:42.082Z,22.60
2017-07-08T21:36:08.686Z,22.50
2017-07-08T21:38:35.329Z,22.40
2017-07-08T21:41:02.591Z,22.50
2017-07-08T21:43:29.265Z,22.50
2017-07-08T21:45:55.860Z,22.50
2017-07-08T21:48:22.961Z,22.50
2017-07-08T21:50:57.425Z,22.40
2017-07-08T21:53:24.131Z,22.30
2017-07-08T21:55:51.005Z,22.20
2017-07-08T21:58:17.541Z,22.10
2017-07-08T22:00:44.149Z,22.00
2017-07-08T22:03:10.854Z,22.00
2017-07-08T22:05:37.429Z,21.90
2017-07-08T22:08:04.020Z,21.80
2017-07-08T22:10:30.526Z,21.80
2017-07-08T22:12:57.093Z,21.50
2017-07-08T22:15:23.720Z,21.70
2017-07-08T22:17:50.266Z,21.70
2017-07-08T22:20:16.865Z,21.60
2017-07-08T22:22:43.674Z,21.70
2017-07-08T22:25:10.257Z,21.80
2017-07-08T22:27:36.824Z,21.80
2017-07-08T22:30:03.424Z,21.80
2017-07-08T22:32:30.044Z,21.80
2017-07-08T22:34:56.726Z,22.00
2017-07-08T22:37:23.337Z,22.00
2017-07-08T22:39:49.893Z,21.90
2017-07-08T22:42:16.454Z,21.70
2017-07-08T22:44:42.976Z,21.70
2017-07-08T22:47:09.559Z,21.60
2017-07-08T22:49:36.150Z,21.60
2017-07-08T22:52:03.436Z,21.60
2017-07-08T22:54:30.202Z,21.50
2017-07-08T22:56:56.940Z,21.40
2017-07-08T22:59:23.633Z,21.50
2017-07-08T23:01:53.577Z,21.60
2017-07-08T23:04:20.090Z,21.50
2017-07-08T23:06:46.661Z,21.60
2017-07-08T23:09:13.325Z,21.50
2017-07-08T23:11:39.935Z,21.50
2017-07-08T23:14:08.418Z,21.60
2017-07-08T23:16:35.031Z,21.60
2017-07-08T23:19:01.966Z,21.60
2017-07-08T23:21:28.561Z,21.50
2017-07-08T23:23:55.148Z,21.40
2017-07-08T23:26:21.745Z,21.30
2017-07-08T23:28:48.383Z,21.20
2017-07-08T23:31:15.237Z,21.20
2017-07-08T23:33:41.870Z,21.00
2017-07-08T23:36:08.710Z,21.00
2017-07-08T23:38:35.367Z,20.90
2017-07-08T23:41:02.802Z,20.90
2017-07-08T23:43:29.414Z,20.70
2017-07-08T23:45:56.255Z,20.70
2017-07-08T23:48:22.835Z,20.90
2017-07-08T23:50:49.408Z,20.60
2017-07-08T23:53:16.689Z,20.70
2017-07-08T23:55:44.483Z,20.70
2017-07-08T23:58:11.128Z,20.70
